createdAt,value
2017-11-04T00:00:01.043Z,49.3
2017-11-04T00:01:02.886Z,49.3
2017-11-04T00:02:04.708Z,49.3
2017-11-04T00:03:06.521Z,49.2
2017-11-04T00:04:07.975Z,49.3
2017-11-04T00:05:10.136Z,49.3
2017-11-04T00:06:11.958Z,49.3
2017-11-04T00:07:13.796Z,49.4
2017-11-04T00:08:15.617Z,49.6
2017-11-04T00:09:17.435Z,49.2
2017-11-04T00:10:19.256Z,49.1
2017-11-04T00:11:21.074Z,49.4
2017-11-04T00:12:22.892Z,49.2
2017-11-04T00:13:24.710Z,49.2
2017-11-04T00:14:26.872Z,49.1
2017-11-04T00:15:29.037Z,49.3
2017-11-04T00:16:30.856Z,49.3
2017-11-04T00:17:33.017Z,49
2017-11-04T00:18:34.471Z,49.2
2017-11-04T00:19:36.288Z,49.1
2017-11-04T00:20:38.449Z,49
2017-11-04T00:21:40.612Z,49.1
2017-11-04T00:22:42.429Z,49.2
2017-11-04T00:23:43.909Z,49
2017-11-04T00:24:46.066Z,49.2
2017-11-04T00:25:48.228Z,49.4
2017-11-04T00:26:50.393Z,49.1
2017-11-04T00:27:51.845Z,49.3
2017-11-04T00:28:54.007Z,49.5
2017-11-04T00:29:55.462Z,49.1
2017-11-04T00:30:57.625Z,49.1
2017-11-04T00:31:59.788Z,49.4
2017-11-04T00:33:01.608Z,49.1
2017-11-04T00:34:03.060Z,49
2017-11-04T00:35:04.537Z,49.2
2017-11-04T00:36:05.995Z,49.4
2017-11-04T00:37:07.794Z,49.2
2017-11-04T00:38:09.609Z,49.2
2017-11-04T00:39:11.061Z,49.4
2017-11-04T00:40:12.883Z,49.1
2017-11-04T00:41:15.046Z,49.4
2017-11-04T00:42:16.867Z,49.1
2017-11-04T00:43:19.029Z,49
2017-11-04T00:44:20.504Z,49.2
2017-11-04T00:45:22.666Z,49.1
2017-11-04T00:46:24.826Z,49.2
2017-11-04T00:47:26.622Z,49.1
2017-11-04T00:48:28.802Z,49.4
2017-11-04T00:49:30.604Z,49.2
2017-11-04T00:50:32.423Z,49.3
2017-11-04T00:51:34.585Z,49.2
2017-11-04T00:52:36.405Z,49.3
2017-11-04T00:53:38.222Z,49.5
2017-11-04T00:54:40.049Z,49.2
2017-11-04T00:55:41.845Z,49
2017-11-04T00:56:43.300Z,49.3
2017-11-04T00:57:45.122Z,49.4
2017-11-04T00:58:46.913Z,49.2
2017-11-04T00:59:48.389Z,49.2
2017-11-04T01:02:50.698Z,49.4
2017-11-04T01:03:52.492Z,49.3
2017-11-04T01:04:53.978Z,49
2017-11-04T01:05:55.778Z,49
2017-11-04T01:06:57.944Z,49
2017-11-04T01:08:00.101Z,49.1
2017-11-04T01:09:01.573Z,49.2
2017-11-04T01:10:03.397Z,49.2
2017-11-04T01:11:04.502Z,49.4
2017-11-04T01:12:06.326Z,49.2
2017-11-04T01:13:08.119Z,49.3
2017-11-04T01:14:10.276Z,49.2
2017-11-04T01:15:12.439Z,49.3
2017-11-04T01:16:13.894Z,49.3
2017-11-04T01:17:15.710Z,49
2017-11-04T01:18:17.871Z,49.1
2017-11-04T01:19:19.666Z,49.1
2017-11-04T01:20:21.829Z,49
2017-11-04T01:21:23.647Z,49
2017-11-04T01:22:25.465Z,49.2
2017-11-04T01:23:26.939Z,49.1
2017-11-04T01:24:28.757Z,49
2017-11-04T01:25:30.573Z,49
2017-11-04T01:26:32.735Z,49.2
2017-11-04T01:27:34.900Z,49.3
2017-11-04T01:28:36.697Z,49.3
2017-11-04T01:29:38.186Z,48.9
2017-11-04T01:30:39.293Z,49
2017-11-04T01:31:41.112Z,49
2017-11-04T01:32:43.275Z,49.1
2017-11-04T01:33:45.441Z,49
2017-11-04T01:34:47.604Z,49.3
2017-11-04T01:35:49.056Z,49
2017-11-04T01:36:50.878Z,49.3
2017-11-04T01:37:53.044Z,49.2
2017-11-04T01:38:54.865Z,49.2
2017-11-04T01:39:57.032Z,49
2017-11-04T01:40:58.483Z,49
2017-11-04T01:42:00.648Z,49.4
2017-11-04T01:43:02.103Z,49
2017-11-04T01:44:03.216Z,49
2017-11-04T01:45:05.034Z,49
2017-11-04T01:46:06.857Z,49.1
2017-11-04T01:47:08.702Z,49.3
2017-11-04T01:48:10.867Z,49.2
2017-11-04T01:49:12.327Z,49.1
2017-11-04T01:50:14.148Z,49
2017-11-04T01:51:15.969Z,49
2017-11-04T01:52:17.788Z,49.1
2017-11-04T01:53:19.954Z,49
2017-11-04T01:54:21.783Z,49.4
2017-11-04T01:55:22.896Z,49
2017-11-04T01:56:24.373Z,49.4
2017-11-04T01:57:26.189Z,49.1
2017-11-04T01:58:28.006Z,49
2017-11-04T01:59:29.827Z,49
2017-11-04T02:00:31.988Z,49.1
2017-11-04T02:01:33.466Z,49.3
2017-11-04T02:02:35.288Z,49
2017-11-04T02:03:37.451Z,49.1
2017-11-04T02:04:38.904Z,49.1
2017-11-04T02:05:40.735Z,49.1
2017-11-04T02:06:42.556Z,49.1
2017-11-04T02:07:44.011Z,49
2017-11-04T02:08:46.213Z,49
2017-11-04T02:09:47.688Z,49
2017-11-04T02:10:49.853Z,49
2017-11-04T02:11:51.655Z,49.1
2017-11-04T02:12:53.824Z,49
2017-11-04T02:13:55.988Z,49
2017-11-04T02:14:57.785Z,49.3
2017-11-04T02:15:59.949Z,49.1
2017-11-04T02:17:02.114Z,49
2017-11-04T02:18:03.590Z,49
2017-11-04T02:19:05.041Z,49.2
2017-11-04T02:20:06.862Z,49
2017-11-04T02:21:07.993Z,49
2017-11-04T02:22:10.159Z,49
2017-11-04T02:23:11.978Z,49.1
2017-11-04T02:24:13.802Z,49
2017-11-04T02:25:15.966Z,48.8
2017-11-04T02:26:17.766Z,49.3
2017-11-04T02:27:19.931Z,49
2017-11-04T02:28:21.384Z,49
2017-11-04T02:29:23.183Z,49
2017-11-04T02:30:25.003Z,49
2017-11-04T02:31:26.484Z,48.9
2017-11-04T02:32:28.644Z,49.2
2017-11-04T02:33:30.811Z,49
2017-11-04T02:34:32.641Z,49.1
2017-11-04T02:35:34.456Z,49.1
2017-11-04T02:36:36.617Z,49.3
2017-11-04T02:37:38.781Z,49.1
2017-11-04T02:38:40.607Z,48.9
2017-11-04T02:39:42.778Z,49
2017-11-04T02:40:44.599Z,49
2017-11-04T02:41:46.761Z,49
2017-11-04T02:42:48.927Z,48.9
2017-11-04T02:43:50.745Z,49.3
2017-11-04T02:44:52.565Z,48.9
2017-11-04T02:45:54.779Z,49
2017-11-04T02:46:56.233Z,49
2017-11-04T02:47:58.399Z,49
2017-11-04T02:49:00.220Z,49
2017-11-04T02:50:02.383Z,49
2017-11-04T02:51:03.902Z,49
2017-11-04T02:52:06.065Z,49
2017-11-04T02:53:07.885Z,49.2
2017-11-04T02:54:10.049Z,48.9
2017-11-04T02:55:11.849Z,49.1
2017-11-04T02:56:13.715Z,48.9
2017-11-04T02:57:15.528Z,48.9
2017-11-04T02:58:17.349Z,49
2017-11-04T02:59:19.513Z,48.9
2017-11-04T03:00:20.968Z,49.1
2017-11-04T03:01:22.788Z,49.2
2017-11-04T03:02:24.611Z,48.9
2017-11-04T03:03:26.087Z,49.1
2017-11-04T03:04:27.917Z,49.2
2017-11-04T03:05:29.025Z,49.1
2017-11-04T03:06:30.820Z,48.9
2017-11-04T03:07:32.281Z,48.9
2017-11-04T03:08:34.094Z,49.2
2017-11-04T03:09:35.550Z,49.2
2017-11-04T03:10:37.711Z,49
2017-11-04T03:11:38.825Z,49
2017-11-04T03:12:40.664Z,49.1
2017-11-04T03:13:42.459Z,49
2017-11-04T03:14:44.276Z,48.9
2017-11-04T03:15:46.442Z,49
2017-11-04T03:16:47.896Z,49.1
2017-11-04T03:17:49.693Z,49.2
2017-11-04T03:18:51.493Z,48.9
2017-11-04T03:19:53.313Z,49
2017-11-04T03:20:55.477Z,49
2017-11-04T03:21:56.608Z,49.2
2017-11-04T03:22:58.772Z,49.1
2017-11-04T03:24:00.941Z,49.1
2017-11-04T03:25:03.108Z,49.1
2017-11-04T03:26:05.270Z,49
2017-11-04T03:27:07.438Z,49
2017-11-04T03:28:09.604Z,48.9
2017-11-04T03:29:11.053Z,48.9
2017-11-04T03:30:13.217Z,49
2017-11-04T03:31:15.383Z,49.2
2017-11-04T03:32:17.549Z,49.1
2017-11-04T03:33:19.714Z,49.2
2017-11-04T03:34:21.514Z,49
2017-11-04T03:35:22.990Z,49.1
2017-11-04T03:36:24.446Z,49
2017-11-04T03:37:26.646Z,49.3
2017-11-04T03:38:28.488Z,49
2017-11-04T03:39:30.654Z,49.1
2017-11-04T03:40:32.818Z,48.9
2017-11-04T03:41:34.983Z,48.9
2017-11-04T03:42:37.148Z,48.9
2017-11-04T03:43:38.965Z,49
2017-11-04T03:44:40.790Z,49
2017-11-04T03:45:42.610Z,48.9
2017-11-04T03:46:44.432Z,49.1
2017-11-04T03:47:45.882Z,49.1
2017-11-04T03:48:47.702Z,49.2
2017-11-04T03:49:49.155Z,49.1
2017-11-04T03:50:51.343Z,49.1
2017-11-04T03:51:53.161Z,49.2
2017-11-04T03:52:55.331Z,49.3
2017-11-04T03:53:57.129Z,49.1
2017-11-04T03:54:58.949Z,49
2017-11-04T03:56:00.773Z,49.3
2017-11-04T03:57:02.586Z,49.3
2017-11-04T03:58:04.408Z,49.1
2017-11-04T03:59:06.587Z,49.4
2017-11-04T04:00:07.354Z,49
2017-11-04T04:01:09.174Z,49.1
2017-11-04T04:02:11.002Z,49.1
2017-11-04T04:03:12.798Z,48.9
2017-11-04T04:04:14.597Z,49
2017-11-04T04:05:16.418Z,49.1
2017-11-04T04:06:18.585Z,49.1
2017-11-04T04:07:20.418Z,49
2017-11-04T04:08:22.237Z,49
2017-11-04T04:09:24.060Z,49.2
2017-11-04T04:10:25.881Z,49.1
2017-11-04T04:11:26.992Z,49.1
2017-11-04T04:12:28.812Z,48.9
2017-11-04T04:13:30.975Z,48.9
2017-11-04T04:14:32.816Z,48.9
2017-11-04T04:15:34.984Z,48.9
2017-11-04T04:16:36.462Z,49.2
2017-11-04T04:17:38.630Z,49
2017-11-04T04:18:40.448Z,49.1
2017-11-04T04:19:42.248Z,49.1
2017-11-04T04:20:44.069Z,48.9
2017-11-04T04:21:45.546Z,49
2017-11-04T04:22:47.362Z,49
2017-11-04T04:23:49.161Z,49
2017-11-04T04:24:50.960Z,49.3
2017-11-04T04:25:52.756Z,49.2
2017-11-04T04:26:54.923Z,49
2017-11-04T04:27:57.087Z,49
2017-11-04T04:28:58.544Z,49
2017-11-04T04:30:00.338Z,48.9
2017-11-04T04:31:01.791Z,49
2017-11-04T04:32:03.618Z,48.9
2017-11-04T04:33:05.436Z,48.9
2017-11-04T04:34:07.254Z,49
2017-11-04T04:35:09.074Z,49
2017-11-04T04:36:10.534Z,49
2017-11-04T04:37:12.356Z,49.1
2017-11-04T04:38:13.858Z,49
2017-11-04T04:39:15.684Z,49
2017-11-04T04:40:17.154Z,49
2017-11-04T04:41:19.319Z,49
2017-11-04T04:42:21.483Z,49
2017-11-04T04:43:22.607Z,48.9
2017-11-04T04:44:24.426Z,48.9
2017-11-04T04:45:26.258Z,48.9
2017-11-04T04:46:27.765Z,49.1
2017-11-04T04:47:29.562Z,49
2017-11-04T04:48:31.020Z,49.1
2017-11-04T04:49:32.845Z,49
2017-11-04T04:50:34.664Z,48.9
2017-11-04T04:51:36.485Z,49.1
2017-11-04T04:52:38.654Z,49
2017-11-04T04:53:40.125Z,49
2017-11-04T04:54:41.235Z,49
2017-11-04T04:55:43.399Z,49.1
2017-11-04T04:56:45.561Z,49
2017-11-04T04:57:47.380Z,49.2
2017-11-04T04:58:48.491Z,49.1
2017-11-04T04:59:50.320Z,49
2017-11-04T05:00:52.134Z,49.1
2017-11-04T05:01:53.588Z,49
2017-11-04T05:02:55.407Z,49
2017-11-04T05:03:57.569Z,49
2017-11-04T05:04:59.733Z,49
2017-11-04T05:06:01.905Z,49
2017-11-04T05:07:03.379Z,49.1
2017-11-04T05:08:04.855Z,49
2017-11-04T05:09:06.675Z,49.3
2017-11-04T05:10:08.496Z,49
2017-11-04T05:11:10.296Z,49.2
2017-11-04T05:12:12.461Z,49.1
2017-11-04T05:13:14.282Z,49
2017-11-04T05:14:16.449Z,49
2017-11-04T05:15:18.269Z,49
2017-11-04T05:16:20.439Z,49.1
2017-11-04T05:17:22.605Z,49.1
2017-11-04T05:18:24.429Z,49.3
2017-11-04T05:19:25.546Z,49.2
2017-11-04T05:20:26.672Z,49.2
2017-11-04T05:21:27.782Z,49
2017-11-04T05:22:29.956Z,49.1
2017-11-04T05:23:31.769Z,49.1
2017-11-04T05:24:33.935Z,49.2
2017-11-04T05:25:35.773Z,49
2017-11-04T05:26:37.933Z,49
2017-11-04T05:27:39.749Z,49.4
2017-11-04T05:28:41.919Z,49
2017-11-04T05:29:43.740Z,48.8
2017-11-04T05:30:45.199Z,49.2
2017-11-04T05:31:47.361Z,49.4
2017-11-04T05:32:49.181Z,49.3
2017-11-04T05:33:51.055Z,49
2017-11-04T05:34:53.221Z,49.2
2017-11-04T05:35:55.384Z,49.4
2017-11-04T05:36:57.205Z,49.2
2017-11-04T05:37:59.370Z,49.2
2017-11-04T05:39:01.171Z,49.3
2017-11-04T05:40:02.992Z,49.3
2017-11-04T05:41:03.775Z,49.2
2017-11-04T05:42:05.939Z,49.1
2017-11-04T05:43:08.105Z,49.1
2017-11-04T05:44:09.582Z,49.3
2017-11-04T05:45:11.379Z,49.1
2017-11-04T05:46:12.488Z,49
2017-11-04T05:47:14.308Z,49
2017-11-04T05:48:16.128Z,49
2017-11-04T05:49:17.945Z,49.2
2017-11-04T05:50:19.768Z,49.2
2017-11-04T05:51:21.930Z,49.2
2017-11-04T05:52:23.751Z,49
2017-11-04T05:53:25.229Z,49.4
2017-11-04T05:54:26.688Z,49.1
2017-11-04T05:55:28.503Z,48.9
2017-11-04T05:56:29.964Z,49
2017-11-04T05:57:31.434Z,49.1
2017-11-04T05:58:33.257Z,49
2017-11-04T05:59:35.420Z,49
2017-11-04T06:00:36.897Z,49
2017-11-04T06:01:38.027Z,49.1
2017-11-04T06:02:40.193Z,49.4
2017-11-04T06:03:41.993Z,49.2
2017-11-04T06:04:43.484Z,49.2
2017-11-04T06:05:44.601Z,49.2
2017-11-04T06:06:46.770Z,49
2017-11-04T06:07:48.934Z,49
2017-11-04T06:08:50.753Z,49.2
2017-11-04T06:09:51.887Z,49.2
2017-11-04T06:10:53.354Z,49
2017-11-04T06:11:55.171Z,49.2
2017-11-04T06:12:56.657Z,49.1
2017-11-04T06:13:57.772Z,49
2017-11-04T06:14:59.249Z,49.3
2017-11-04T06:16:01.432Z,49.2
2017-11-04T06:17:03.256Z,49.2
2017-11-04T06:18:04.708Z,49.2
2017-11-04T06:19:06.512Z,49.2
2017-11-04T06:20:08.001Z,49.3
2017-11-04T06:21:09.822Z,49
2017-11-04T06:22:11.986Z,49.2
2017-11-04T06:23:13.464Z,49.2
2017-11-04T06:24:14.943Z,49
2017-11-04T06:25:16.763Z,49.2
2017-11-04T06:26:18.584Z,49.4
2017-11-04T06:27:20.748Z,49.1
2017-11-04T06:28:22.569Z,49.1
2017-11-04T06:29:24.028Z,49
2017-11-04T06:30:26.217Z,49.6
2017-11-04T06:31:28.387Z,49.1
2017-11-04T06:32:30.202Z,49.1
2017-11-04T06:33:31.676Z,49.1
2017-11-04T06:34:33.153Z,49.2
2017-11-04T06:35:34.631Z,49
2017-11-04T06:36:36.450Z,49.4
2017-11-04T06:37:38.275Z,49
2017-11-04T06:38:39.755Z,49.2
2017-11-04T06:39:41.575Z,49.1
2017-11-04T06:40:43.034Z,49.2
2017-11-04T06:41:45.197Z,49.1
2017-11-04T06:42:46.672Z,49
2017-11-04T06:43:48.494Z,49
2017-11-04T06:44:49.949Z,49.2
2017-11-04T06:45:51.798Z,49.3
2017-11-04T06:46:53.611Z,49.3
2017-11-04T06:47:55.777Z,49.3
2017-11-04T06:48:57.948Z,49.1
2017-11-04T06:50:00.113Z,49.1
2017-11-04T06:51:02.275Z,49.2
2017-11-04T06:52:04.441Z,49
2017-11-04T06:53:06.281Z,49.6
2017-11-04T06:54:08.103Z,49.2
2017-11-04T06:55:10.271Z,49.2
2017-11-04T06:56:12.099Z,49.2
2017-11-04T06:57:14.262Z,49.3
2017-11-04T06:58:16.065Z,49.2
2017-11-04T06:59:17.866Z,49
2017-11-04T07:00:19.340Z,49.1
2017-11-04T07:01:21.161Z,49
2017-11-04T07:02:23.376Z,49
2017-11-04T07:03:25.172Z,49.1
2017-11-04T07:04:26.994Z,49.1
2017-11-04T07:05:28.815Z,49.4
2017-11-04T07:06:29.924Z,49.1
2017-11-04T07:07:32.089Z,49.3
2017-11-04T07:08:33.909Z,49.3
2017-11-04T07:09:36.074Z,49
2017-11-04T07:10:37.902Z,49.1
2017-11-04T07:11:40.068Z,49.2
2017-11-04T07:12:41.886Z,49.1
2017-11-04T07:13:42.994Z,49.1
2017-11-04T07:14:44.113Z,49.2
2017-11-04T07:15:45.930Z,49.3
2017-11-04T07:16:47.750Z,49.2
2017-11-04T07:17:49.578Z,49
2017-11-04T07:18:51.739Z,49.4
2017-11-04T07:19:53.561Z,49
2017-11-04T07:20:55.383Z,49.1
2017-11-04T07:21:57.205Z,49.4
2017-11-04T07:22:59.036Z,49.1
2017-11-04T07:24:00.480Z,49
2017-11-04T07:25:01.956Z,49.1
2017-11-04T07:26:03.432Z,49
2017-11-04T07:27:04.551Z,49.1
2017-11-04T07:28:06.025Z,49.2
2017-11-04T07:29:08.192Z,49
2017-11-04T07:30:09.311Z,49
2017-11-04T07:31:10.786Z,49.1
2017-11-04T07:32:12.616Z,49
2017-11-04T07:33:13.739Z,49
2017-11-04T07:34:15.901Z,49
2017-11-04T07:35:17.722Z,49
2017-11-04T07:36:19.200Z,49
2017-11-04T07:37:21.019Z,49
2017-11-04T07:38:22.472Z,49
2017-11-04T07:39:23.247Z,49.1
2017-11-04T07:40:25.047Z,49.1
2017-11-04T07:41:26.868Z,49.1
2017-11-04T07:42:28.691Z,49.2
2017-11-04T07:43:30.142Z,49
2017-11-04T07:44:31.251Z,49
2017-11-04T07:45:33.072Z,49
2017-11-04T07:46:34.180Z,49
2017-11-04T07:47:36.001Z,48.9
2017-11-04T07:48:37.816Z,48.9
2017-11-04T07:49:39.636Z,49
2017-11-04T07:50:41.456Z,49.2
2017-11-04T07:51:42.567Z,49
2017-11-04T07:52:44.385Z,48.9
2017-11-04T07:53:46.550Z,49.1
2017-11-04T07:54:48.715Z,49.2
2017-11-04T07:55:49.826Z,49
2017-11-04T07:56:51.305Z,49
2017-11-04T07:57:53.466Z,48.9
2017-11-04T07:58:54.924Z,49
2017-11-04T07:59:56.746Z,49.3
2017-11-04T08:00:58.196Z,49
2017-11-04T08:02:00.018Z,49.1
2017-11-04T08:03:01.819Z,49
2017-11-04T08:04:03.625Z,49
2017-11-04T08:05:05.094Z,49.1
2017-11-04T08:06:07.265Z,49
2017-11-04T08:07:09.082Z,49
2017-11-04T08:08:10.540Z,48.9
2017-11-04T08:09:12.024Z,49
2017-11-04T08:10:14.185Z,48.9
2017-11-04T08:11:16.034Z,49.1
2017-11-04T08:12:17.847Z,48.9
2017-11-04T08:13:19.323Z,48.9
2017-11-04T08:14:21.490Z,49.1
2017-11-04T08:15:23.655Z,49
2017-11-04T08:16:25.131Z,49.1
2017-11-04T08:17:26.927Z,49.3
2017-11-04T08:18:28.725Z,48.9
2017-11-04T08:19:30.179Z,49.3
2017-11-04T08:20:32.002Z,49
2017-11-04T08:21:33.457Z,49.1
2017-11-04T08:22:35.620Z,48.9
2017-11-04T08:23:37.420Z,48.9
2017-11-04T08:24:39.220Z,49.1
2017-11-04T08:25:41.384Z,49
2017-11-04T08:26:43.207Z,49.1
2017-11-04T08:27:44.318Z,49
2017-11-04T08:28:46.487Z,49.3
2017-11-04T08:29:48.303Z,49.3
2017-11-04T08:30:50.124Z,48.9
2017-11-04T08:31:51.946Z,49.1
2017-11-04T08:32:54.102Z,49
2017-11-04T08:33:55.593Z,49.1
2017-11-04T08:34:57.067Z,49
2017-11-04T08:35:58.522Z,49.1
2017-11-04T08:37:00.339Z,49.2
2017-11-04T08:38:01.795Z,49.1
2017-11-04T08:39:02.571Z,49.3
2017-11-04T08:40:04.396Z,49
2017-11-04T08:41:05.873Z,49
2017-11-04T08:42:07.697Z,49
2017-11-04T08:43:09.514Z,49.1
2017-11-04T08:44:11.679Z,49
2017-11-04T08:45:13.499Z,49.1
2017-11-04T08:46:15.318Z,49.1
2017-11-04T08:47:17.140Z,49.2
2017-11-04T08:48:18.591Z,49
2017-11-04T08:49:20.397Z,49.2
2017-11-04T08:50:22.559Z,49.1
2017-11-04T08:51:24.018Z,49
2017-11-04T08:52:26.185Z,49.1
2017-11-04T08:53:28.014Z,49.1
2017-11-04T08:54:29.817Z,49
2017-11-04T08:55:31.276Z,49
2017-11-04T08:56:33.071Z,49.2
2017-11-04T08:57:34.550Z,49.2
2017-11-04T08:58:35.658Z,49
2017-11-04T08:59:37.120Z,49
2017-11-04T09:00:38.940Z,49
2017-11-04T09:01:40.078Z,49.1
2017-11-04T09:02:42.244Z,49.1
2017-11-04T09:03:44.413Z,49.3
2017-11-04T09:04:46.571Z,49
2017-11-04T09:05:48.403Z,49
2017-11-04T09:06:49.881Z,49
2017-11-04T09:07:51.706Z,49
2017-11-04T09:08:53.870Z,49
2017-11-04T09:09:55.691Z,49
2017-11-04T09:10:57.491Z,49
2017-11-04T09:11:59.313Z,49
2017-11-04T09:13:01.130Z,49
2017-11-04T09:14:02.960Z,49
2017-11-04T09:15:05.123Z,49
2017-11-04T09:16:06.950Z,49.1
2017-11-04T09:17:09.117Z,49.1
2017-11-04T09:18:10.947Z,49
2017-11-04T09:19:12.057Z,49
2017-11-04T09:20:14.221Z,49
2017-11-04T09:21:16.389Z,49
2017-11-04T09:22:17.864Z,49
2017-11-04T09:23:20.030Z,49.1
2017-11-04T09:24:22.193Z,49
2017-11-04T09:25:24.015Z,49
2017-11-04T09:26:25.139Z,49
2017-11-04T09:27:27.301Z,49
2017-11-04T09:28:28.436Z,49
2017-11-04T09:29:30.252Z,49
2017-11-04T09:30:31.709Z,49
2017-11-04T09:31:33.184Z,49
2017-11-04T09:32:35.005Z,49
2017-11-04T09:33:37.170Z,49
2017-11-04T09:34:38.647Z,49
2017-11-04T09:35:40.468Z,49
2017-11-04T09:36:42.633Z,49.3
2017-11-04T09:37:44.114Z,49.2
2017-11-04T09:38:45.914Z,49.1
2017-11-04T09:39:48.087Z,49
2017-11-04T09:40:49.556Z,49
2017-11-04T09:41:51.721Z,49.2
2017-11-04T09:42:53.198Z,49
2017-11-04T09:43:55.000Z,49.1
2017-11-04T09:44:56.504Z,49
2017-11-04T09:45:58.668Z,49
2017-11-04T09:47:00.837Z,49
2017-11-04T09:48:03.034Z,49
2017-11-04T09:49:05.218Z,49.1
2017-11-04T09:50:06.657Z,49.1
2017-11-04T09:51:08.822Z,49.4
2017-11-04T09:52:10.986Z,49.2
2017-11-04T09:53:12.462Z,49.4
2017-11-04T09:54:14.629Z,49.1
2017-11-04T09:55:15.741Z,49.4
2017-11-04T09:56:17.536Z,49.1
2017-11-04T09:57:19.710Z,49.2
2017-11-04T09:58:21.189Z,49.3
2017-11-04T09:59:22.654Z,49.2
2017-11-04T10:00:24.132Z,49.2
2017-11-04T10:01:25.950Z,49.2
2017-11-04T10:02:27.770Z,49.1
2017-11-04T10:03:29.603Z,49.2
2017-11-04T10:04:31.437Z,49.3
2017-11-04T10:05:33.611Z,49.5
2017-11-04T10:06:35.773Z,49
2017-11-04T10:07:37.594Z,49.2
2017-11-04T10:08:39.070Z,49
2017-11-04T10:09:40.873Z,49
2017-11-04T10:10:42.676Z,49.1
2017-11-04T10:11:44.845Z,49.2
2017-11-04T10:12:46.675Z,49
2017-11-04T10:13:47.787Z,49
2017-11-04T10:14:49.608Z,49.4
2017-11-04T10:15:51.779Z,49.2
2017-11-04T10:16:53.252Z,49.2
2017-11-04T10:17:54.729Z,49
2017-11-04T10:18:56.528Z,49.3
2017-11-04T10:19:58.332Z,49.4
2017-11-04T10:21:00.497Z,49.3
2017-11-04T10:22:02.668Z,49.3
2017-11-04T10:23:03.770Z,49.2
2017-11-04T10:24:04.886Z,49.2
2017-11-04T10:25:06.705Z,49
2017-11-04T10:26:08.523Z,49.6
2017-11-04T10:27:10.340Z,49.4
2017-11-04T10:28:12.162Z,49.4
2017-11-04T10:29:13.979Z,49.3
2017-11-04T10:30:16.152Z,49.3
2017-11-04T10:31:17.977Z,49.5
2017-11-04T10:32:20.148Z,49.3
2017-11-04T10:33:21.592Z,49.5
2017-11-04T10:34:23.415Z,49.4
2017-11-04T10:35:25.214Z,49.6
2017-11-04T10:36:27.030Z,49.5
2017-11-04T10:37:28.139Z,49.5
2017-11-04T10:38:29.959Z,49.6
2017-11-04T10:39:31.774Z,49.9
2017-11-04T10:40:33.596Z,49.5
2017-11-04T10:41:35.766Z,49.6
2017-11-04T10:42:37.244Z,49.5
2017-11-04T10:43:39.041Z,49.5
2017-11-04T10:44:40.862Z,49.6
2017-11-04T10:45:42.703Z,49.5
2017-11-04T10:46:44.859Z,49.5
2017-11-04T10:47:47.026Z,49.7
2017-11-04T10:48:48.849Z,49.5
2017-11-04T10:49:51.013Z,49.6
2017-11-04T10:50:52.812Z,49.5
2017-11-04T10:51:54.633Z,49.5
2017-11-04T10:52:55.741Z,49.4
2017-11-04T10:53:57.904Z,49.8
2017-11-04T10:55:00.074Z,49.4
2017-11-04T10:56:02.240Z,49.7
2017-11-04T10:57:04.059Z,49.4
2017-11-04T10:58:05.877Z,49.6
2017-11-04T10:59:07.700Z,49.6
2017-11-04T11:00:09.175Z,49.5
2017-11-04T11:01:10.286Z,49.4
2017-11-04T11:02:12.104Z,49.8
2017-11-04T11:03:13.564Z,49.5
2017-11-04T11:04:14.677Z,49.5
2017-11-04T11:05:16.476Z,49.3
2017-11-04T11:06:18.298Z,49.4
2017-11-04T11:07:20.117Z,49.4
2017-11-04T11:08:22.285Z,49.5
2017-11-04T11:09:24.085Z,49.5
2017-11-04T11:10:26.250Z,49.4
2017-11-04T11:11:28.418Z,49.4
2017-11-04T11:12:29.881Z,49.2
2017-11-04T11:13:30.988Z,49.5
2017-11-04T11:14:32.808Z,49.3
2017-11-04T11:15:34.974Z,49.4
2017-11-04T11:16:37.147Z,49.6
2017-11-04T11:17:39.298Z,50
2017-11-04T11:18:41.469Z,49.7
2017-11-04T11:19:43.299Z,49.8
2017-11-04T11:20:44.770Z,49.7
2017-11-04T11:21:46.592Z,49.6
2017-11-04T11:22:48.069Z,49.8
2017-11-04T11:23:49.894Z,49.4
2017-11-04T11:24:51.716Z,49.4
2017-11-04T11:25:53.193Z,49.6
2017-11-04T11:26:55.012Z,49.6
2017-11-04T11:27:56.837Z,49.6
2017-11-04T11:28:58.998Z,49.5
2017-11-04T11:30:00.820Z,49.4
2017-11-04T11:31:02.620Z,49.7
2017-11-04T11:32:04.442Z,49.5
2017-11-04T11:33:05.571Z,49.6
2017-11-04T11:34:07.389Z,49.4
2017-11-04T11:35:09.555Z,49.2
2017-11-04T11:36:11.377Z,49.4
2017-11-04T11:37:13.174Z,49.3
2017-11-04T11:38:14.991Z,49.3
2017-11-04T11:39:16.817Z,49.4
2017-11-04T11:40:18.639Z,49.5
2017-11-04T11:41:20.462Z,49.5
2017-11-04T11:42:22.620Z,49.9
2017-11-04T11:43:24.081Z,49.9
2017-11-04T11:44:25.538Z,49.5
2017-11-04T11:45:26.990Z,49.6
2017-11-04T11:46:28.824Z,49.5
2017-11-04T11:47:30.300Z,49.7
2017-11-04T11:48:31.780Z,49.7
2017-11-04T11:49:33.605Z,49.5
2017-11-04T11:50:35.058Z,49.5
2017-11-04T11:51:36.175Z,49.6
2017-11-04T11:52:38.337Z,49.6
2017-11-04T11:53:40.158Z,50
2017-11-04T11:54:42.340Z,49.7
2017-11-04T11:55:43.818Z,49.6
2017-11-04T11:56:45.983Z,49.9
2017-11-04T11:57:47.792Z,49.8
2017-11-04T11:58:48.902Z,49.7
2017-11-04T11:59:50.361Z,49.7
2017-11-04T12:00:52.524Z,49.7
2017-11-04T12:01:54.323Z,49.7
2017-11-04T12:02:55.436Z,49.8
2017-11-04T12:03:57.257Z,49.6
2017-11-04T12:04:59.076Z,49.8
2017-11-04T12:06:00.538Z,49.7
2017-11-04T12:07:01.990Z,49.5
2017-11-04T12:08:03.788Z,49.6
2017-11-04T12:09:05.953Z,49.5
2017-11-04T12:10:08.118Z,49.7
2017-11-04T12:11:10.279Z,49.5
2017-11-04T12:12:11.757Z,49.5
2017-11-04T12:13:13.922Z,49.8
2017-11-04T12:14:15.378Z,50.1
2017-11-04T12:15:17.541Z,50
2017-11-04T12:16:19.708Z,50
2017-11-04T12:17:21.896Z,50
2017-11-04T12:18:24.076Z,50
2017-11-04T12:19:26.237Z,50.1
2017-11-04T12:20:28.405Z,50
2017-11-04T12:21:29.518Z,50.1
2017-11-04T12:22:31.682Z,50.1
2017-11-04T12:23:33.481Z,50
2017-11-04T12:24:35.300Z,49.9
2017-11-04T12:25:37.124Z,49.9
2017-11-04T12:26:38.235Z,50
2017-11-04T12:27:40.398Z,50
2017-11-04T12:28:42.220Z,50.1
2017-11-04T12:29:44.019Z,50
2017-11-04T12:30:45.496Z,50.2
2017-11-04T12:31:47.324Z,50.1
2017-11-04T12:32:49.141Z,50
2017-11-04T12:33:50.963Z,50
2017-11-04T12:34:52.097Z,49.9
2017-11-04T12:35:53.900Z,49.9
2017-11-04T12:36:56.061Z,49.9
2017-11-04T12:37:58.224Z,50.2
2017-11-04T12:39:00.387Z,49.7
2017-11-04T12:40:01.861Z,49.9
2017-11-04T12:41:04.030Z,49.7
2017-11-04T12:42:05.829Z,50
2017-11-04T12:43:07.304Z,50
2017-11-04T12:44:08.415Z,50
2017-11-04T12:45:10.577Z,50
2017-11-04T12:46:12.740Z,50
2017-11-04T12:47:14.224Z,50.2
2017-11-04T12:48:16.445Z,50
2017-11-04T12:49:18.264Z,50.1
2017-11-04T12:50:19.720Z,50
2017-11-04T12:51:21.890Z,50
2017-11-04T12:52:24.053Z,50
2017-11-04T12:53:26.222Z,50
2017-11-04T12:54:28.051Z,50
2017-11-04T12:55:29.865Z,49.8
2017-11-04T12:56:31.686Z,50
2017-11-04T12:57:33.851Z,49.9
2017-11-04T12:58:35.674Z,49.7
2017-11-04T12:59:37.131Z,49.7
2017-11-04T13:00:39.300Z,50
2017-11-04T13:01:41.471Z,49.8
2017-11-04T13:02:42.945Z,50
2017-11-04T13:03:45.112Z,50.2
2017-11-04T13:04:46.936Z,50.2
2017-11-04T13:05:48.446Z,49.8
2017-11-04T13:06:50.602Z,49.7
2017-11-04T13:07:52.091Z,49.9
2017-11-04T13:08:53.916Z,50
2017-11-04T13:09:55.736Z,49.9
2017-11-04T13:10:57.927Z,50.2
2017-11-04T13:12:00.094Z,50
2017-11-04T13:13:02.265Z,49.6
2017-11-04T13:14:03.741Z,49.5
2017-11-04T13:15:05.539Z,49.6
2017-11-04T13:16:07.363Z,49.7
2017-11-04T13:17:09.165Z,50
2017-11-04T13:18:10.640Z,50.1
2017-11-04T13:19:12.464Z,49.7
2017-11-04T13:20:13.596Z,50.1
2017-11-04T13:21:15.414Z,50.3
2017-11-04T13:22:17.579Z,49.8
2017-11-04T13:23:19.380Z,49.9
2017-11-04T13:24:21.547Z,49.5
2017-11-04T13:25:23.716Z,50.1
2017-11-04T13:26:25.882Z,49.8
2017-11-04T13:27:27.707Z,49.9
2017-11-04T13:28:28.840Z,50.2
2017-11-04T13:29:30.660Z,50.3
2017-11-04T13:30:32.483Z,50.4
2017-11-04T13:31:34.654Z,50
2017-11-04T13:32:36.469Z,50.2
2017-11-04T13:33:38.632Z,50.3
2017-11-04T13:34:40.453Z,49.9
2017-11-04T13:35:42.619Z,49.9
2017-11-04T13:36:44.096Z,50.4
2017-11-04T13:37:45.904Z,50.1
2017-11-04T13:38:47.702Z,50.1
2017-11-04T13:39:49.873Z,50.1
2017-11-04T13:40:51.672Z,50.2
2017-11-04T13:41:53.476Z,50.4
2017-11-04T13:42:55.646Z,50
2017-11-04T13:43:57.109Z,50
2017-11-04T13:44:59.267Z,49.9
2017-11-04T13:46:01.127Z,50.3
2017-11-04T13:47:02.949Z,50.4
2017-11-04T13:48:05.111Z,50.7
2017-11-04T13:49:06.598Z,49.9
2017-11-04T13:50:08.760Z,50.4
2017-11-04T13:51:10.244Z,50.4
2017-11-04T13:52:12.063Z,50.3
2017-11-04T13:53:13.863Z,50.5
2017-11-04T13:54:15.684Z,50.3
2017-11-04T13:55:16.798Z,50.7
2017-11-04T13:56:18.279Z,50
2017-11-04T13:57:20.444Z,50.1
2017-11-04T13:58:21.924Z,50.5
2017-11-04T13:59:24.089Z,50.3
2017-11-04T14:00:25.547Z,50.2
2017-11-04T14:01:27.713Z,50.2